createdAt,value
2024-04-22T00:01:18.641Z,98476.06
2024-04-22T00:06:20.529Z,98471.75
2024-04-22T00:11:22.585Z,98473.78
2024-04-22T00:16:24.655Z,98469.16
2024-04-22T00:21:26.802Z,98460.13
2024-04-22T00:26:28.746Z,98458.19
2024-04-22T00:31:31.279Z,98454.66
2024-04-22T00:36:33.491Z,98455.06
2024-04-22T00:41:36.589Z,98456.09
2024-04-22T00:46:39.067Z,98455.97
2024-04-22T00:51:41.196Z,98448.66
2024-04-22T00:56:43.601Z,98457.81
2024-04-22T01:01:46.676Z,98442.22
2024-04-22T01:06:48.654Z,98461.50
2024-04-22T01:11:50.732Z,98445.09
2024-04-22T01:16:56.875Z,98462.88
2024-04-22T01:21:58.919Z,98473.72
2024-04-22T01:27:05.148Z,98468.63
2024-04-22T01:32:07.803Z,98480.13
2024-04-22T01:37:09.971Z,98478.38
2024-04-22T01:42:11.983Z,98483.47
2024-04-22T01:47:14.112Z,98475.91
2024-04-22T01:52:16.115Z,98467.81
2024-04-22T01:57:18.078Z,98473.44
2024-04-22T02:02:19.966Z,98476.69
2024-04-22T02:07:22.699Z,98470.34
2024-04-22T02:12:27.577Z,98472.28
2024-04-22T02:17:29.800Z,98465.72
2024-04-22T02:22:32.003Z,98471.19
2024-04-22T02:27:33.935Z,98474.22
2024-04-22T02:32:36.190Z,98465.66
2024-04-22T02:37:38.344Z,98473.34
2024-04-22T02:42:40.475Z,98479.25
2024-04-22T02:47:42.837Z,98478.09
2024-04-22T02:52:44.745Z,98478.69
2024-04-22T02:57:46.618Z,98474.44
2024-04-22T03:02:48.527Z,98464.59
2024-04-22T03:07:51.838Z,98469.88
2024-04-22T03:12:53.760Z,98463.41
2024-04-22T03:17:55.628Z,98470.66
2024-04-22T03:22:57.831Z,98456.69
2024-04-22T03:28:00.030Z,98472.09
2024-04-22T03:33:02.291Z,98464.72
2024-04-22T03:38:04.313Z,98456.50
2024-04-22T03:43:06.504Z,98473.75
2024-04-22T03:48:27.500Z,98471.00
2024-04-22T03:53:29.657Z,98473.28
2024-04-22T03:58:31.544Z,98480.91
2024-04-22T04:03:33.613Z,98486.06
2024-04-22T04:08:35.645Z,98486.88
2024-04-22T04:13:38.097Z,98485.50
2024-04-22T04:18:40.558Z,98496.13
2024-04-22T04:23:42.679Z,98497.53
2024-04-22T04:28:49.223Z,98493.78
2024-04-22T04:33:51.385Z,98493.66
2024-04-22T04:38:53.412Z,98484.50
2024-04-22T04:43:55.477Z,98499.88
2024-04-22T04:48:58.660Z,98507.31
2024-04-22T04:54:00.640Z,98512.97
2024-04-22T04:59:02.653Z,98517.72
2024-04-22T05:04:05.138Z,98526.97
2024-04-22T05:09:07.240Z,98526.75
2024-04-22T05:14:09.205Z,98533.53
2024-04-22T05:19:11.423Z,98531.59
2024-04-22T05:24:13.819Z,98537.50
2024-04-22T05:29:15.994Z,98541.47
2024-04-22T05:34:36.727Z,98542.41
2024-04-22T05:39:38.852Z,98535.53
2024-04-22T05:44:40.787Z,98534.22
2024-04-22T05:49:43.044Z,98545.94
2024-04-22T05:54:45.106Z,98537.66
2024-04-22T05:59:46.907Z,98542.88
2024-04-22T06:04:49.048Z,98534.50
2024-04-22T06:09:51.021Z,98533.66
2024-04-22T06:14:53.008Z,98539.91
2024-04-22T06:19:55.117Z,98522.72
2024-04-22T06:24:57.299Z,98536.19
2024-04-22T06:29:59.307Z,98527.13
2024-04-22T06:35:01.176Z,98527.44
2024-04-22T06:40:03.143Z,98536.84
2024-04-22T06:45:05.325Z,98530.59
2024-04-22T06:50:07.482Z,98525.31
2024-04-22T06:55:10.048Z,98525.97
2024-04-22T07:00:12.751Z,98522.59
2024-04-22T07:05:14.709Z,98519.56
2024-04-22T07:10:16.833Z,98530.44
2024-04-22T07:15:20.452Z,98521.47
2024-04-22T07:20:22.410Z,98529.88
2024-04-22T07:25:24.775Z,98531.09
2024-04-22T07:30:26.935Z,98538.19
2024-04-22T07:35:29.323Z,98540.25
2024-04-22T07:40:32.642Z,98542.56
2024-04-22T07:45:34.565Z,98553.31
2024-04-22T07:50:36.628Z,98546.09
2024-04-22T07:55:38.954Z,98558.19
2024-04-22T08:00:41.439Z,98560.69
2024-04-22T08:05:43.703Z,98557.75
2024-04-22T08:10:46.207Z,98554.84
2024-04-22T08:15:49.096Z,98552.53
2024-04-22T08:20:51.015Z,98556.78
2024-04-22T08:25:54.244Z,98558.34
2024-04-22T08:31:10.673Z,98554.16
2024-04-22T08:36:15.384Z,98553.50
2024-04-22T08:41:20.301Z,98557.63
2024-04-22T08:46:22.312Z,98568.50
2024-04-22T08:51:24.729Z,98571.88
2024-04-22T08:56:30.208Z,98570.28
2024-04-22T09:01:32.763Z,98573.00
2024-04-22T09:06:34.994Z,98569.03
2024-04-22T09:11:58.771Z,98554.25
2024-04-22T09:16:59.034Z,98545.91
2024-04-22T09:22:04.188Z,98548.69
2024-04-22T09:27:07.131Z,98550.06
2024-04-22T09:32:15.973Z,98551.63
2024-04-22T09:37:18.305Z,98552.22
2024-04-22T09:42:21.195Z,98546.88
2024-04-22T09:47:24.148Z,98551.81
2024-04-22T09:52:27.927Z,98536.50
2024-04-22T09:57:32.693Z,98547.22
2024-04-22T10:02:35.086Z,98537.94
2024-04-22T10:07:38.694Z,98540.44
2024-04-22T10:12:41.220Z,98548.31
2024-04-22T10:17:47.584Z,98535.03
2024-04-22T10:22:51.362Z,98525.66
2024-04-22T10:27:53.474Z,98523.66
2024-04-22T10:32:55.416Z,98510.78
2024-04-22T10:37:58.476Z,98515.06
2024-04-22T10:43:00.822Z,98519.31
2024-04-22T10:48:11.720Z,98514.19
2024-04-22T10:53:20.332Z,98514.84
2024-04-22T10:58:24.352Z,98508.75
2024-04-22T11:03:27.490Z,98506.59
2024-04-22T11:08:30.395Z,98511.53
2024-04-22T11:13:34.134Z,98493.22
2024-04-22T11:18:37.208Z,98498.44
2024-04-22T11:23:39.731Z,98494.63
2024-04-22T11:28:41.846Z,98486.47
2024-04-22T11:33:44.026Z,98492.94
2024-04-22T11:38:46.375Z,98492.69
2024-04-22T11:43:48.539Z,98493.56
2024-04-22T11:48:50.992Z,98500.31
2024-04-22T11:53:54.616Z,98504.69
2024-04-22T11:58:57.185Z,98495.97
2024-04-22T12:04:00.520Z,98496.38
2024-04-22T12:09:05.838Z,98490.06
2024-04-22T12:14:09.552Z,98495.56
2024-04-22T12:19:11.921Z,98492.50
2024-04-22T12:24:14.183Z,98482.28
2024-04-22T12:29:16.334Z,98488.28
2024-04-22T12:34:18.442Z,98479.88
2024-04-22T12:39:20.546Z,98490.47
2024-04-22T12:44:22.707Z,98479.34
2024-04-22T12:49:43.280Z,98465.16
2024-04-22T12:54:45.447Z,98458.63
2024-04-22T12:59:48.663Z,98462.13
2024-04-22T13:04:50.632Z,98462.75
2024-04-22T13:09:53.361Z,98462.75
2024-04-22T13:14:55.577Z,98460.78
2024-04-22T13:19:57.709Z,98461.78
2024-04-22T13:25:02.470Z,98446.06
2024-04-22T13:30:10.719Z,98449.50
2024-04-22T13:35:12.696Z,98454.28
2024-04-22T13:40:14.712Z,98439.41
2024-04-22T13:45:16.992Z,98438.09
2024-04-22T13:50:19.033Z,98448.13
2024-04-22T13:55:21.279Z,98441.03
2024-04-22T14:00:23.568Z,98446.84
2024-04-22T14:05:25.827Z,98452.69
2024-04-22T14:10:28.749Z,98448.53
2024-04-22T14:15:44.353Z,98456.84
2024-04-22T14:20:49.916Z,98455.78
2024-04-22T14:25:53.277Z,98458.63
2024-04-22T14:30:55.978Z,98462.56
2024-04-22T14:35:57.940Z,98458.59
2024-04-22T14:41:00.160Z,98461.25
2024-04-22T14:46:03.932Z,98447.88
2024-04-22T14:51:06.233Z,98453.81
2024-04-22T14:56:08.352Z,98446.44
2024-04-22T15:01:10.307Z,98442.69
2024-04-22T15:06:12.293Z,98447.47
2024-04-22T15:11:14.472Z,98443.53
2024-04-22T15:16:17.483Z,98440.56
2024-04-22T15:21:19.428Z,98446.53
2024-04-22T15:26:21.437Z,98444.91
2024-04-22T15:31:23.503Z,98441.31
2024-04-22T15:36:25.524Z,98452.97
2024-04-22T15:41:27.651Z,98448.63
2024-04-22T15:46:31.501Z,98461.28
2024-04-22T15:51:33.610Z,98460.31
2024-04-22T15:56:36.358Z,98467.00
2024-04-22T16:01:40.984Z,98446.19
2024-04-22T16:06:43.065Z,98446.59
2024-04-22T16:11:45.122Z,98448.50
2024-04-22T16:16:47.188Z,98449.91
2024-04-22T16:21:49.242Z,98448.97
2024-04-22T16:26:53.724Z,98454.66
2024-04-22T16:31:55.740Z,98448.81
2024-04-22T16:36:57.624Z,98456.47
2024-04-22T16:41:59.551Z,98451.34
2024-04-22T16:47:01.590Z,98462.00
2024-04-22T16:52:04.587Z,98462.94
2024-04-22T16:57:06.517Z,98470.03
2024-04-22T17:02:08.548Z,98468.06
2024-04-22T17:07:10.677Z,98477.94
2024-04-22T17:12:12.566Z,98464.53
2024-04-22T17:17:14.469Z,98473.41
2024-04-22T17:22:16.558Z,98482.41
2024-04-22T17:27:21.661Z,98472.50
2024-04-22T17:32:23.800Z,98478.03
2024-04-22T17:37:25.681Z,98476.38
2024-04-22T17:42:28.029Z,98487.03
2024-04-22T17:47:30.266Z,98492.16
2024-04-22T17:52:32.254Z,98487.03
2024-04-22T17:57:34.067Z,98485.41
2024-04-22T18:02:36.003Z,98491.81
2024-04-22T18:07:37.883Z,98488.59
2024-04-22T18:12:41.835Z,98485.50
2024-04-22T18:17:43.904Z,98472.91
2024-04-22T18:22:50.643Z,98462.19
2024-04-22T18:27:53.331Z,98453.50
2024-04-22T18:32:55.252Z,98459.56
2024-04-22T18:37:57.411Z,98464.53
2024-04-22T18:42:59.560Z,98459.06
2024-04-22T18:48:01.705Z,98459.19
2024-04-22T18:53:04.791Z,98449.81
2024-04-22T18:58:07.898Z,98466.72
2024-04-22T19:03:10.739Z,98455.03
2024-04-22T19:08:13.647Z,98458.25
2024-04-22T19:13:17.067Z,98459.19
2024-04-22T19:18:20.471Z,98462.78
2024-04-22T19:23:22.519Z,98460.69
2024-04-22T19:28:26.870Z,98463.22
2024-04-22T19:33:29.929Z,98465.31
2024-04-22T19:38:31.998Z,98460.00
2024-04-22T19:43:34.099Z,98464.13
2024-04-22T19:48:36.138Z,98452.78
2024-04-22T19:53:39.120Z,98461.63
2024-04-22T19:58:41.113Z,98451.28
2024-04-22T20:03:44.112Z,98457.09
2024-04-22T20:08:48.181Z,98468.91
2024-04-22T20:13:50.300Z,98460.03
2024-04-22T20:18:58.075Z,98466.34
2024-04-22T20:23:59.923Z,98464.34
2024-04-22T20:29:01.736Z,98456.84
2024-04-22T20:34:03.750Z,98462.47
2024-04-22T20:39:05.894Z,98452.53
2024-04-22T20:44:07.841Z,98456.25
2024-04-22T20:49:09.915Z,98449.72
2024-04-22T20:54:11.755Z,98444.78
2024-04-22T20:59:13.624Z,98458.53
2024-04-22T21:04:15.434Z,98449.78
2024-04-22T21:09:17.266Z,98439.22
2024-04-22T21:14:19.134Z,98434.56
2024-04-22T21:19:21.152Z,98446.38
2024-04-22T21:24:23.215Z,98454.44
2024-04-22T21:29:25.081Z,98449.47
2024-04-22T21:34:28.776Z,98451.81
2024-04-22T21:39:31.103Z,98451.44
2024-04-22T21:44:33.402Z,98454.56
2024-04-22T21:49:35.404Z,98452.25
2024-04-22T21:54:37.515Z,98444.91
2024-04-22T22:00:16.794Z,98455.34
2024-04-22T22:05:55.979Z,98464.38
2024-04-22T22:10:58.696Z,98459.34
2024-04-22T22:16:00.659Z,98452.59
2024-04-22T22:21:03.021Z,98450.41
2024-04-22T22:26:05.217Z,98466.41
2024-04-22T22:31:07.415Z,98467.63
2024-04-22T22:36:09.529Z,98461.56
2024-04-22T22:41:11.370Z,98444.69
2024-04-22T22:46:13.237Z,98441.97
2024-04-22T22:51:15.068Z,98443.03
2024-04-22T22:56:16.858Z,98436.22
2024-04-22T23:01:18.713Z,98440.03
2024-04-22T23:06:20.573Z,98433.69
2024-04-22T23:11:22.403Z,98433.34
2024-04-22T23:16:24.307Z,98421.13
2024-04-22T23:21:26.139Z,98425.91
2024-04-22T23:26:28.148Z,98425.88
2024-04-22T23:31:30.287Z,98424.06
2024-04-22T23:36:32.154Z,98411.31
2024-04-22T23:41:34.009Z,98412.34
2024-04-22T23:46:35.940Z,98411.09
2024-04-22T23:51:37.899Z,98406.22
2024-04-22T23:56:39.814Z,98398.81
